createdAt,value
2023-05-20T00:02:03.138Z,10.49
2023-05-20T00:04:29.915Z,10.60
2023-05-20T00:06:56.680Z,11.13
2023-05-20T00:09:23.355Z,10.74
2023-05-20T00:11:49.979Z,10.18
2023-05-20T00:14:16.624Z,10.84
2023-05-20T00:16:43.727Z,9.22
2023-05-20T00:19:10.642Z,10.79
2023-05-20T00:21:37.338Z,9.87
2023-05-20T00:24:04.204Z,10.57
2023-05-20T00:26:31.018Z,10.61
2023-05-20T00:28:57.727Z,10.44
2023-05-20T00:31:24.505Z,10.52
2023-05-20T00:33:51.484Z,9.45
2023-05-20T00:36:18.149Z,10.67
2023-05-20T00:38:45.019Z,8.01
2023-05-20T00:41:11.959Z,10.54
2023-05-20T00:43:38.589Z,9.68
2023-05-20T00:46:05.476Z,10.35
2023-05-20T00:48:36.726Z,10.99
2023-05-20T00:51:05.075Z,10.71
2023-05-20T00:53:31.810Z,10.48
2023-05-20T00:55:58.533Z,9.18
2023-05-20T00:58:25.943Z,10.30
2023-05-20T01:00:52.606Z,10.81
2023-05-20T01:03:19.628Z,9.54
2023-05-20T01:05:46.686Z,10.64
2023-05-20T01:08:13.361Z,10.18
2023-05-20T01:10:42.624Z,9.48
2023-05-20T01:13:10.959Z,10.57
2023-05-20T01:15:37.994Z,10.37
2023-05-20T01:18:06.172Z,10.24
2023-05-20T01:20:33.278Z,10.28
2023-05-20T01:23:01.272Z,10.67
2023-05-20T01:25:29.898Z,10.59
2023-05-20T01:27:57.880Z,10.77
2023-05-20T01:30:28.326Z,10.32
2023-05-20T01:33:01.424Z,10.90
2023-05-20T01:35:28.106Z,10.38
2023-05-20T01:37:54.786Z,10.57
2023-05-20T01:40:21.716Z,10.18
2023-05-20T01:42:53.112Z,10.47
2023-05-20T01:45:20.279Z,10.58
2023-05-20T01:47:47.112Z,10.39
2023-05-20T01:50:13.799Z,10.45
2023-05-20T01:52:40.482Z,9.57
2023-05-20T01:55:07.373Z,9.42
2023-05-20T01:57:34.127Z,10.23
2023-05-20T02:00:00.855Z,10.48
2023-05-20T02:02:27.625Z,9.91
2023-05-20T02:04:54.453Z,10.48
2023-05-20T02:07:21.137Z,10.13
2023-05-20T02:09:48.165Z,10.39
2023-05-20T02:12:17.814Z,10.03
2023-05-20T02:14:45.414Z,9.74
2023-05-20T02:17:12.874Z,9.53
2023-05-20T02:19:39.612Z,9.86
2023-05-20T02:22:06.945Z,10.46
2023-05-20T02:24:33.598Z,8.95
2023-05-20T02:27:00.400Z,10.59
2023-05-20T02:29:27.116Z,9.69
2023-05-20T02:31:53.753Z,7.89
2023-05-20T02:34:20.695Z,9.31
2023-05-20T02:36:47.685Z,10.31
2023-05-20T02:39:14.325Z,9.85
2023-05-20T02:41:40.980Z,9.86
2023-05-20T02:44:07.629Z,8.43
2023-05-20T02:46:34.400Z,9.51
2023-05-20T02:49:01.179Z,10.52
2023-05-20T02:51:27.865Z,10.33
2023-05-20T02:53:54.595Z,9.88
2023-05-20T02:56:21.558Z,8.66
2023-05-20T02:58:48.615Z,9.87
2023-05-20T03:01:15.398Z,9.80
2023-05-20T03:03:42.497Z,10.32
2023-05-20T03:06:09.132Z,8.27
2023-05-20T03:08:36.417Z,10.32
2023-05-20T03:11:04.776Z,10.19
2023-05-20T03:13:32.087Z,10.21
2023-05-20T03:15:58.864Z,9.83
2023-05-20T03:18:25.485Z,10.09
2023-05-20T03:20:52.177Z,8.40
2023-05-20T03:23:18.870Z,8.44
2023-05-20T03:25:46.360Z,10.06
2023-05-20T03:28:13.096Z,10.11
2023-05-20T03:30:39.783Z,10.24
2023-05-20T03:33:06.736Z,9.88
2023-05-20T03:35:33.627Z,9.73
2023-05-20T03:38:01.882Z,9.55
2023-05-20T03:40:28.673Z,10.13
2023-05-20T03:42:55.710Z,10.09
2023-05-20T03:45:22.362Z,8.22
2023-05-20T03:47:49.045Z,10.44
2023-05-20T03:50:15.806Z,10.03
2023-05-20T03:52:42.526Z,8.32
2023-05-20T03:55:09.708Z,8.26
2023-05-20T03:57:36.717Z,9.87
2023-05-20T04:00:10.342Z,9.63
2023-05-20T04:02:37.495Z,9.98
2023-05-20T04:05:04.928Z,9.74
2023-05-20T04:07:31.668Z,10.36
2023-05-20T04:09:59.447Z,9.09
2023-05-20T04:12:30.631Z,9.72
2023-05-20T04:14:58.722Z,9.82
2023-05-20T04:17:26.144Z,9.79
2023-05-20T04:19:53.310Z,10.17
2023-05-20T04:22:20.072Z,8.77
2023-05-20T04:24:46.767Z,7.77
2023-05-20T04:27:14.173Z,10.22
2023-05-20T04:29:41.746Z,10.34
2023-05-20T04:32:11.090Z,10.17
2023-05-20T04:34:38.983Z,10.45
2023-05-20T04:37:07.830Z,10.02
2023-05-20T04:39:35.176Z,10.73
2023-05-20T04:42:03.071Z,10.28
2023-05-20T04:44:30.219Z,10.68
2023-05-20T04:47:00.260Z,10.06
2023-05-20T04:49:26.987Z,10.43
2023-05-20T04:51:55.447Z,10.45
2023-05-20T04:54:22.273Z,7.70
2023-05-20T04:56:48.971Z,10.75
2023-05-20T04:59:15.856Z,9.61
2023-05-20T05:01:42.835Z,10.30
2023-05-20T05:04:09.640Z,10.11
2023-05-20T05:06:36.594Z,10.27
2023-05-20T05:09:03.282Z,10.91
2023-05-20T05:11:29.979Z,10.61
2023-05-20T05:13:56.794Z,9.96
2023-05-20T05:16:23.560Z,8.54
2023-05-20T05:18:50.413Z,10.31
2023-05-20T05:21:17.201Z,10.88
2023-05-20T05:23:44.043Z,11.03
2023-05-20T05:26:10.848Z,10.52
2023-05-20T05:28:37.512Z,10.91
2023-05-20T05:31:04.280Z,10.55
2023-05-20T05:33:31.056Z,10.98
2023-05-20T05:35:59.491Z,9.80
2023-05-20T05:38:26.251Z,11.05
2023-05-20T05:40:53.315Z,10.57
2023-05-20T05:43:20.024Z,10.19
2023-05-20T05:45:46.771Z,11.50
2023-05-20T05:48:13.486Z,11.28
2023-05-20T05:50:46.528Z,11.75
2023-05-20T05:53:13.315Z,11.49
2023-05-20T05:55:40.210Z,10.70
2023-05-20T05:58:06.935Z,11.31
2023-05-20T06:00:33.700Z,9.97
2023-05-20T06:03:00.500Z,11.74
2023-05-20T06:05:29.363Z,11.84
2023-05-20T06:07:56.777Z,10.39
2023-05-20T06:10:23.740Z,12.00
2023-05-20T06:12:50.557Z,11.31
2023-05-20T06:15:17.318Z,10.61
2023-05-20T06:17:44.326Z,10.04
2023-05-20T06:20:11.519Z,12.05
2023-05-20T06:22:38.170Z,12.21
2023-05-20T06:25:06.326Z,11.37
2023-05-20T06:27:33.469Z,12.19
2023-05-20T06:30:00.293Z,11.22
2023-05-20T06:32:27.611Z,12.61
2023-05-20T06:34:54.311Z,12.79
2023-05-20T06:37:21.265Z,12.65
2023-05-20T06:39:53.796Z,13.43
2023-05-20T06:42:22.551Z,13.36
2023-05-20T06:44:49.254Z,13.37
2023-05-20T06:47:17.328Z,13.83
2023-05-20T06:49:47.423Z,13.57
2023-05-20T06:52:14.512Z,13.96
2023-05-20T06:54:41.939Z,14.70
2023-05-20T06:57:09.194Z,14.00
2023-05-20T06:59:36.713Z,14.81
2023-05-20T07:02:03.920Z,14.11
2023-05-20T07:04:30.805Z,14.71
2023-05-20T07:06:57.459Z,12.97
2023-05-20T07:09:24.175Z,15.40
2023-05-20T07:11:50.928Z,15.74
2023-05-20T07:14:17.794Z,16.44
2023-05-20T07:16:44.596Z,17.24
2023-05-20T07:19:11.446Z,17.54
2023-05-20T07:21:38.176Z,18.25
2023-05-20T07:24:05.017Z,18.60
2023-05-20T07:26:33.983Z,17.66
2023-05-20T07:29:00.759Z,18.48
2023-05-20T07:31:27.473Z,18.63
2023-05-20T07:33:54.222Z,19.49
2023-05-20T07:36:21.059Z,18.94
2023-05-20T07:38:56.925Z,19.16
2023-05-20T07:41:29.008Z,19.15
2023-05-20T07:43:55.674Z,18.28
2023-05-20T07:46:22.446Z,18.08
2023-05-20T07:48:49.372Z,19.01
2023-05-20T07:51:16.913Z,19.45
2023-05-20T07:53:43.586Z,18.73
2023-05-20T07:56:10.280Z,19.47
2023-05-20T07:58:36.969Z,19.12
2023-05-20T08:01:03.974Z,19.42
2023-05-20T08:03:30.747Z,19.06
2023-05-20T08:05:57.471Z,19.08
2023-05-20T08:08:24.189Z,19.31
2023-05-20T08:10:51.918Z,19.23
2023-05-20T08:13:18.592Z,19.14
2023-05-20T08:15:45.288Z,19.16
2023-05-20T08:18:12.121Z,18.29
2023-05-20T08:20:38.980Z,19.14
2023-05-20T08:23:08.872Z,18.87
2023-05-20T08:25:36.354Z,19.17
2023-05-20T08:28:06.913Z,19.05
2023-05-20T08:30:34.013Z,19.30
2023-05-20T08:33:02.040Z,19.03
2023-05-20T08:35:28.771Z,19.43
2023-05-20T08:37:55.401Z,19.57
2023-05-20T08:40:22.340Z,18.80
2023-05-20T08:42:50.052Z,19.56
2023-05-20T08:45:18.236Z,18.84
2023-05-20T08:47:45.018Z,18.74
2023-05-20T08:50:12.409Z,19.16
2023-05-20T08:52:47.341Z,17.65
2023-05-20T08:55:27.022Z,19.34
2023-05-20T08:57:54.805Z,18.84
2023-05-20T09:00:23.704Z,17.69
2023-05-20T09:02:52.003Z,18.99
2023-05-20T09:05:19.267Z,18.90
2023-05-20T09:07:46.158Z,19.05
2023-05-20T09:10:12.832Z,19.27
2023-05-20T09:12:39.786Z,18.98
2023-05-20T09:15:07.488Z,19.22
2023-05-20T09:17:37.688Z,18.65
2023-05-20T09:20:09.109Z,18.90
2023-05-20T09:22:35.815Z,19.02
2023-05-20T09:25:02.672Z,17.29
2023-05-20T09:27:29.315Z,19.38
2023-05-20T09:29:55.951Z,19.09
2023-05-20T09:32:28.321Z,19.74
2023-05-20T09:34:55.100Z,19.43
2023-05-20T09:37:21.952Z,19.13
2023-05-20T09:39:51.730Z,19.94
2023-05-20T09:42:26.379Z,19.31
2023-05-20T09:44:54.261Z,19.94
2023-05-20T09:47:21.034Z,19.89
2023-05-20T09:49:48.195Z,19.30
2023-05-20T09:52:15.788Z,19.63
2023-05-20T09:54:43.450Z,19.42
2023-05-20T09:57:10.165Z,19.53
2023-05-20T09:59:40.377Z,19.41
2023-05-20T10:02:07.096Z,19.62
2023-05-20T10:04:35.441Z,19.98
2023-05-20T10:07:30.618Z,20.05
2023-05-20T10:10:41.890Z,20.06
2023-05-20T10:13:36.166Z,19.98
2023-05-20T10:16:30.574Z,19.44
2023-05-20T10:19:16.251Z,19.92
2023-05-20T10:21:43.000Z,19.70
2023-05-20T10:24:10.575Z,19.58
2023-05-20T10:26:41.511Z,19.08
2023-05-20T10:29:22.658Z,19.57
2023-05-20T10:31:50.781Z,19.53
2023-05-20T10:34:18.561Z,19.16
2023-05-20T10:36:46.848Z,19.57
2023-05-20T10:39:17.502Z,18.98
2023-05-20T10:41:44.291Z,19.73
2023-05-20T10:44:11.045Z,19.38
2023-05-20T10:46:53.833Z,20.05
2023-05-20T10:49:27.511Z,19.76
2023-05-20T10:51:54.808Z,19.43
2023-05-20T10:54:22.157Z,19.85
2023-05-20T10:56:53.678Z,20.04
2023-05-20T10:59:21.878Z,19.31
2023-05-20T11:01:49.192Z,19.90
2023-05-20T11:04:16.633Z,18.70
2023-05-20T11:06:54.090Z,19.96
2023-05-20T11:09:21.065Z,19.21
2023-05-20T11:11:47.808Z,19.20
2023-05-20T11:14:15.217Z,20.18
2023-05-20T11:16:42.452Z,20.57
2023-05-20T11:19:09.668Z,20.15
2023-05-20T11:21:43.214Z,19.42
2023-05-20T11:24:09.908Z,20.02
2023-05-20T11:26:36.985Z,19.61
2023-05-20T11:29:03.664Z,19.66
2023-05-20T11:31:34.197Z,20.31
2023-05-20T11:34:04.435Z,20.00
2023-05-20T11:36:31.338Z,19.24
2023-05-20T11:38:59.642Z,19.84
2023-05-20T11:41:26.789Z,20.75
2023-05-20T11:43:59.972Z,20.49
2023-05-20T11:46:27.365Z,19.89
2023-05-20T11:48:54.832Z,20.03
2023-05-20T11:51:28.089Z,18.78
2023-05-20T11:54:02.472Z,20.26
2023-05-20T11:56:39.031Z,19.92
2023-05-20T11:59:06.656Z,20.08
2023-05-20T12:01:37.732Z,19.47
2023-05-20T12:04:08.501Z,19.15
2023-05-20T12:06:37.131Z,19.50
2023-05-20T12:09:07.311Z,17.40
2023-05-20T12:11:37.744Z,18.90
2023-05-20T12:14:04.652Z,18.75
2023-05-20T12:16:32.142Z,19.01
2023-05-20T12:18:58.947Z,19.09
2023-05-20T12:21:25.622Z,18.95
2023-05-20T12:23:57.547Z,19.30
2023-05-20T12:26:28.094Z,18.82
2023-05-20T12:28:54.916Z,18.79
2023-05-20T12:31:27.476Z,18.86
2023-05-20T12:33:55.461Z,18.78
2023-05-20T12:36:22.284Z,18.68
2023-05-20T12:38:49.082Z,17.92
2023-05-20T12:41:15.939Z,18.79
2023-05-20T12:43:42.849Z,18.95
2023-05-20T12:46:09.582Z,18.69
2023-05-20T12:48:37.135Z,18.57
2023-05-20T12:51:04.175Z,18.28
2023-05-20T12:53:30.851Z,18.56
2023-05-20T12:55:57.653Z,18.61
2023-05-20T12:58:24.324Z,18.55
2023-05-20T13:00:51.091Z,18.69
2023-05-20T13:03:18.069Z,18.64
2023-05-20T13:05:44.961Z,18.70
2023-05-20T13:08:12.735Z,18.81
2023-05-20T13:10:39.385Z,18.30
2023-05-20T13:13:06.110Z,18.32
2023-05-20T13:15:36.051Z,18.11
2023-05-20T13:18:05.912Z,18.17
2023-05-20T13:20:32.728Z,18.03
2023-05-20T13:22:59.596Z,18.49
2023-05-20T13:25:26.660Z,18.49
2023-05-20T13:27:53.295Z,18.55
2023-05-20T13:30:19.934Z,19.00
2023-05-20T13:32:46.845Z,18.47
2023-05-20T13:35:14.700Z,19.01
2023-05-20T13:37:41.548Z,18.70
2023-05-20T13:40:09.287Z,17.70
2023-05-20T13:42:35.966Z,18.33
2023-05-20T13:45:02.645Z,18.03
2023-05-20T13:47:29.490Z,18.15
2023-05-20T13:49:56.302Z,17.79
2023-05-20T13:52:22.980Z,18.39
2023-05-20T13:54:49.869Z,18.01
2023-05-20T13:57:16.581Z,18.25
2023-05-20T13:59:43.319Z,18.09
2023-05-20T14:02:10.328Z,17.55
2023-05-20T14:04:39.862Z,17.73
2023-05-20T14:07:09.283Z,17.83
2023-05-20T14:09:36.721Z,17.77
2023-05-20T14:12:04.580Z,17.58
2023-05-20T14:14:31.442Z,17.42
2023-05-20T14:16:58.171Z,16.83
2023-05-20T14:19:25.249Z,17.41
2023-05-20T14:21:52.195Z,17.41
2023-05-20T14:24:19.600Z,16.38
2023-05-20T14:26:47.055Z,16.42
2023-05-20T14:29:15.308Z,15.90
2023-05-20T14:31:42.331Z,17.34
2023-05-20T14:34:09.011Z,17.62
2023-05-20T14:36:35.777Z,17.23
2023-05-20T14:39:02.467Z,16.98
2023-05-20T14:41:29.703Z,17.13
2023-05-20T14:43:56.646Z,16.45
2023-05-20T14:46:23.565Z,15.55
2023-05-20T14:48:50.357Z,15.80
2023-05-20T14:51:17.004Z,16.79
2023-05-20T14:53:43.693Z,15.72
2023-05-20T14:56:10.396Z,16.99
2023-05-20T14:58:37.132Z,16.82
2023-05-20T15:01:04.107Z,16.65
2023-05-20T15:03:30.926Z,16.58
2023-05-20T15:05:57.597Z,17.20
2023-05-20T15:08:24.328Z,17.14
2023-05-20T15:10:51.058Z,17.08
2023-05-20T15:13:17.853Z,15.62
2023-05-20T15:15:44.875Z,16.90
2023-05-20T15:18:11.800Z,15.50
2023-05-20T15:20:38.696Z,16.66
2023-05-20T15:23:05.482Z,16.14
2023-05-20T15:25:32.392Z,16.30
2023-05-20T15:27:59.101Z,16.16
2023-05-20T15:30:25.811Z,16.42
2023-05-20T15:32:52.548Z,16.60
2023-05-20T15:35:19.247Z,16.56
2023-05-20T15:37:45.897Z,16.64
2023-05-20T15:40:12.780Z,16.55
2023-05-20T15:42:39.488Z,16.65
2023-05-20T15:45:07.384Z,16.24
2023-05-20T15:47:34.079Z,16.58
2023-05-20T15:50:05.118Z,16.58
2023-05-20T15:52:32.302Z,16.34
2023-05-20T15:54:59.041Z,16.40
2023-05-20T15:57:25.775Z,16.17
2023-05-20T15:59:52.719Z,16.34
2023-05-20T16:02:19.636Z,16.51
2023-05-20T16:04:46.736Z,16.69
2023-05-20T16:07:14.180Z,17.14
2023-05-20T16:09:41.061Z,15.41
2023-05-20T16:12:07.881Z,15.60
2023-05-20T16:14:34.725Z,16.35
2023-05-20T16:17:01.481Z,15.20
2023-05-20T16:19:28.271Z,15.66
2023-05-20T16:21:55.122Z,15.66
2023-05-20T16:24:21.848Z,16.09
2023-05-20T16:26:48.557Z,15.59
2023-05-20T16:29:16.599Z,16.19
2023-05-20T16:31:46.715Z,16.09
2023-05-20T16:34:14.573Z,16.34
2023-05-20T16:36:41.326Z,16.03
2023-05-20T16:39:08.152Z,15.06
2023-05-20T16:41:34.867Z,16.20
2023-05-20T16:44:01.572Z,16.42
2023-05-20T16:46:28.287Z,16.06
2023-05-20T16:48:55.160Z,16.03
2023-05-20T16:51:22.095Z,15.49
2023-05-20T16:53:48.795Z,16.07
2023-05-20T16:56:15.705Z,16.41
2023-05-20T16:58:42.411Z,16.03
2023-05-20T17:01:09.192Z,15.36
2023-05-20T17:03:36.146Z,14.81
2023-05-20T17:06:02.870Z,15.79
2023-05-20T17:08:29.935Z,15.14
2023-05-20T17:10:57.031Z,15.66
2023-05-20T17:13:23.757Z,15.70
2023-05-20T17:15:50.422Z,15.42
2023-05-20T17:18:17.163Z,14.51
2023-05-20T17:20:43.864Z,15.69
2023-05-20T17:23:10.750Z,16.10
2023-05-20T17:25:37.460Z,14.97
2023-05-20T17:28:04.346Z,15.39
2023-05-20T17:30:31.044Z,15.87
2023-05-20T17:32:57.970Z,15.35
2023-05-20T17:35:25.951Z,15.93
2023-05-20T17:37:53.642Z,15.53
2023-05-20T17:40:20.710Z,15.89
2023-05-20T17:42:50.226Z,14.65
2023-05-20T17:45:16.994Z,15.18
2023-05-20T17:47:43.739Z,15.82
2023-05-20T17:50:11.058Z,15.23
2023-05-20T17:52:37.862Z,15.27
2023-05-20T17:55:04.981Z,14.91
2023-05-20T17:57:31.780Z,15.13
2023-05-20T17:59:58.752Z,14.11
2023-05-20T18:02:25.678Z,14.50
2023-05-20T18:04:52.440Z,15.27
2023-05-20T18:07:19.220Z,13.51
2023-05-20T18:09:46.044Z,14.11
2023-05-20T18:12:12.750Z,14.49
2023-05-20T18:14:39.497Z,14.17
2023-05-20T18:17:06.250Z,14.40
2023-05-20T18:19:34.071Z,14.27
2023-05-20T18:22:02.824Z,13.80
2023-05-20T18:24:29.749Z,14.77
2023-05-20T18:26:56.422Z,14.37
2023-05-20T18:29:25.694Z,14.88
2023-05-20T18:31:52.577Z,14.01
2023-05-20T18:34:19.287Z,13.31
2023-05-20T18:36:45.992Z,14.26
2023-05-20T18:39:14.228Z,14.29
2023-05-20T18:44:12.519Z,14.45
2023-05-20T18:46:39.242Z,13.32
2023-05-20T18:49:06.282Z,14.88
2023-05-20T18:51:33.282Z,13.74
2023-05-20T18:54:00.664Z,14.72
2023-05-20T18:56:27.567Z,14.37
2023-05-20T18:58:54.292Z,13.86
2023-05-20T19:01:21.121Z,14.49
2023-05-20T19:03:47.905Z,14.03
2023-05-20T19:06:14.611Z,14.34
2023-05-20T19:08:41.295Z,14.21
2023-05-20T19:11:08.021Z,14.34
2023-05-20T19:13:34.757Z,13.98
2023-05-20T19:16:01.544Z,13.96
2023-05-20T19:18:28.321Z,14.23
2023-05-20T19:20:55.195Z,13.88
2023-05-20T19:23:22.186Z,13.71
2023-05-20T19:25:49.375Z,13.08
2023-05-20T19:28:16.837Z,12.50
2023-05-20T19:30:43.520Z,13.13
2023-05-20T19:33:10.949Z,13.29
2023-05-20T19:35:37.944Z,13.60
2023-05-20T19:38:05.969Z,14.46
2023-05-20T19:40:32.661Z,12.36
2023-05-20T19:42:59.591Z,11.42
2023-05-20T19:45:26.377Z,12.90
2023-05-20T19:47:53.163Z,13.00
2023-05-20T19:50:19.956Z,12.28
2023-05-20T19:52:46.758Z,14.05
2023-05-20T19:55:13.654Z,12.78
2023-05-20T19:57:40.689Z,12.77
2023-05-20T20:00:08.388Z,12.79
2023-05-20T20:02:35.134Z,12.15
2023-05-20T20:05:02.010Z,12.88
2023-05-20T20:07:28.813Z,12.64
2023-05-20T20:09:55.653Z,12.66
2023-05-20T20:12:22.649Z,12.61
2023-05-20T20:14:49.581Z,13.27
2023-05-20T20:17:17.554Z,12.24
2023-05-20T20:19:48.112Z,12.70
2023-05-20T20:22:16.367Z,11.99
2023-05-20T20:24:43.092Z,11.90
2023-05-20T20:27:10.701Z,11.13
2023-05-20T20:29:37.681Z,11.34
2023-05-20T20:32:04.855Z,11.42
2023-05-20T20:34:31.696Z,11.15
2023-05-20T20:37:01.588Z,10.79
2023-05-20T20:39:29.078Z,10.47
2023-05-20T20:41:55.859Z,11.83
2023-05-20T20:44:22.780Z,10.68
2023-05-20T20:46:52.889Z,11.30
2023-05-20T20:49:20.207Z,10.96
2023-05-20T20:51:47.332Z,11.78
2023-05-20T20:54:16.861Z,11.60
2023-05-20T20:56:45.657Z,11.06
2023-05-20T20:59:13.578Z,11.63
2023-05-20T21:01:41.974Z,10.62
2023-05-20T21:04:09.428Z,10.60
2023-05-20T21:06:37.912Z,11.41
2023-05-20T21:09:04.884Z,12.00
2023-05-20T21:11:31.862Z,11.83
2023-05-20T21:13:58.589Z,10.82
2023-05-20T21:16:25.433Z,11.23
2023-05-20T21:18:52.252Z,10.83
2023-05-20T21:21:21.656Z,11.66
2023-05-20T21:23:50.920Z,11.27
2023-05-20T21:26:17.720Z,11.58
2023-05-20T21:28:44.396Z,11.19
2023-05-20T21:31:11.447Z,12.29
2023-05-20T21:33:38.212Z,12.18
2023-05-20T21:36:05.265Z,12.21
2023-05-20T21:38:32.029Z,11.00
2023-05-20T21:40:58.853Z,10.80
2023-05-20T21:43:25.686Z,11.17
2023-05-20T21:45:52.514Z,10.72
2023-05-20T21:48:19.249Z,11.84
2023-05-20T21:50:46.014Z,12.00
2023-05-20T21:53:12.750Z,11.34
2023-05-20T21:55:39.453Z,11.42
2023-05-20T21:58:06.117Z,11.64
2023-05-20T22:00:32.900Z,11.95
2023-05-20T22:02:59.668Z,11.20
2023-05-20T22:05:26.453Z,11.60
2023-05-20T22:07:54.652Z,11.27
2023-05-20T22:10:23.241Z,12.26
2023-05-20T22:12:50.991Z,10.95
2023-05-20T22:15:17.871Z,12.00
2023-05-20T22:17:47.652Z,10.80
2023-05-20T22:20:14.616Z,11.16
2023-05-20T22:22:41.382Z,11.72
2023-05-20T22:25:08.491Z,11.19
2023-05-20T22:27:35.283Z,11.72
2023-05-20T22:30:02.189Z,11.50
2023-05-20T22:32:28.912Z,11.83
2023-05-20T22:34:58.462Z,10.92
2023-05-20T22:37:26.496Z,10.94
2023-05-20T22:39:53.202Z,11.22
2023-05-20T22:42:19.931Z,11.84
2023-05-20T22:44:46.865Z,10.81
2023-05-20T22:47:13.517Z,11.59
2023-05-20T22:49:40.639Z,11.17
2023-05-20T22:52:07.815Z,12.10
2023-05-20T22:54:34.883Z,12.05
2023-05-20T22:57:01.511Z,11.47
2023-05-20T22:59:31.227Z,11.52
2023-05-20T23:01:58.058Z,11.49
2023-05-20T23:04:24.896Z,11.07
2023-05-20T23:06:53.982Z,11.62
2023-05-20T23:09:21.285Z,10.54
2023-05-20T23:11:48.028Z,10.62
2023-05-20T23:14:14.762Z,10.71
2023-05-20T23:16:42.253Z,11.42
2023-05-20T23:19:09.182Z,11.70
2023-05-20T23:21:37.372Z,11.97
2023-05-20T23:24:04.638Z,11.28
2023-05-20T23:26:31.618Z,10.94
2023-05-20T23:28:58.330Z,10.85
2023-05-20T23:31:26.983Z,9.72
2023-05-20T23:33:54.300Z,10.62
2023-05-20T23:36:21.194Z,11.68
2023-05-20T23:38:47.955Z,10.76
2023-05-20T23:41:14.729Z,11.54
2023-05-20T23:43:42.913Z,9.66
2023-05-20T23:46:09.828Z,10.71
2023-05-20T23:48:36.675Z,10.37
2023-05-20T23:51:03.514Z,10.64
2023-05-20T23:53:30.234Z,10.12
2023-05-20T23:55:56.945Z,10.52
2023-05-20T23:58:23.687Z,9.48
